sensor_id;sensor_type;location;lat;lon;timestamp;P1;durP1;ratioP1;P2;durP2;ratioP2
76894;SDS011;65855;42.030;13.078;2024-01-30T00:02:20;5.32;;;4.85;;
76894;SDS011;65855;42.030;13.078;2024-01-30T00:04:46;4.28;;;2.95;;
76894;SDS011;65855;42.030;13.078;2024-01-30T00:07:12;2.75;;;1.75;;
76894;SDS011;65855;42.030;13.078;2024-01-30T00:09:38;3.55;;;1.70;;
76894;SDS011;65855;42.030;13.078;2024-01-30T00:12:05;2.53;;;2.03;;
76894;SDS011;65855;42.030;13.078;2024-01-30T00:14:31;5.55;;;3.05;;
76894;SDS011;65855;42.030;13.078;2024-01-30T00:16:56;6.78;;;6.07;;
76894;SDS011;65855;42.030;13.078;2024-01-30T00:19:22;3.33;;;2.22;;
76894;SDS011;65855;42.030;13.078;2024-01-30T00:21:47;2.85;;;1.85;;
76894;SDS011;65855;42.030;13.078;2024-01-30T00:24:13;2.90;;;2.25;;
76894;SDS011;65855;42.030;13.078;2024-01-30T00:26:38;8.07;;;5.10;;
76894;SDS011;65855;42.030;13.078;2024-01-30T00:29:04;2.67;;;1.85;;
76894;SDS011;65855;42.030;13.078;2024-01-30T00:31:29;3.15;;;1.88;;
76894;SDS011;65855;42.030;13.078;2024-01-30T00:33:55;2.80;;;2.25;;
76894;SDS011;65855;42.030;13.078;2024-01-30T00:36:21;2.28;;;1.58;;
76894;SDS011;65855;42.030;13.078;2024-01-30T00:38:46;3.17;;;2.35;;
76894;SDS011;65855;42.030;13.078;2024-01-30T00:41:12;3.00;;;2.33;;
76894;SDS011;65855;42.030;13.078;2024-01-30T00:43:38;2.92;;;2.10;;
76894;SDS011;65855;42.030;13.078;2024-01-30T00:46:03;2.67;;;1.90;;
76894;SDS011;65855;42.030;13.078;2024-01-30T00:48:29;2.55;;;2.17;;
76894;SDS011;65855;42.030;13.078;2024-01-30T00:50:54;2.92;;;1.98;;
76894;SDS011;65855;42.030;13.078;2024-01-30T00:53:20;3.45;;;2.08;;
76894;SDS011;65855;42.030;13.078;2024-01-30T00:55:45;6.25;;;5.47;;
76894;SDS011;65855;42.030;13.078;2024-01-30T00:58:11;3.28;;;2.33;;
76894;SDS011;65855;42.030;13.078;2024-01-30T01:00:36;2.33;;;2.10;;
76894;SDS011;65855;42.030;13.078;2024-01-30T01:03:02;5.15;;;4.65;;
76894;SDS011;65855;42.030;13.078;2024-01-30T01:05:27;4.03;;;1.83;;
76894;SDS011;65855;42.030;13.078;2024-01-30T01:07:53;3.50;;;2.45;;
76894;SDS011;65855;42.030;13.078;2024-01-30T01:10:19;2.72;;;1.98;;
76894;SDS011;65855;42.030;13.078;2024-01-30T01:12:45;3.25;;;1.73;;
76894;SDS011;65855;42.030;13.078;2024-01-30T01:15:11;3.35;;;1.98;;
76894;SDS011;65855;42.030;13.078;2024-01-30T01:17:37;4.00;;;2.17;;
76894;SDS011;65855;42.030;13.078;2024-01-30T01:20:03;3.28;;;1.98;;
76894;SDS011;65855;42.030;13.078;2024-01-30T01:22:33;4.07;;;3.67;;
76894;SDS011;65855;42.030;13.078;2024-01-30T01:24:59;2.08;;;1.48;;
76894;SDS011;65855;42.030;13.078;2024-01-30T01:27:25;4.75;;;3.05;;
76894;SDS011;65855;42.030;13.078;2024-01-30T01:29:51;3.40;;;2.25;;
76894;SDS011;65855;42.030;13.078;2024-01-30T01:32:16;2.30;;;1.73;;
76894;SDS011;65855;42.030;13.078;2024-01-30T01:34:42;5.35;;;2.55;;
76894;SDS011;65855;42.030;13.078;2024-01-30T01:37:07;6.25;;;5.45;;
76894;SDS011;65855;42.030;13.078;2024-01-30T01:39:33;6.53;;;2.38;;
76894;SDS011;65855;42.030;13.078;2024-01-30T01:41:59;2.20;;;1.63;;
76894;SDS011;65855;42.030;13.078;2024-01-30T01:44:24;4.50;;;4.10;;
76894;SDS011;65855;42.030;13.078;2024-01-30T01:46:50;2.92;;;1.70;;
76894;SDS011;65855;42.030;13.078;2024-01-30T01:49:17;3.13;;;1.98;;
76894;SDS011;65855;42.030;13.078;2024-01-30T01:51:44;2.92;;;2.72;;
76894;SDS011;65855;42.030;13.078;2024-01-30T01:54:10;3.05;;;2.75;;
76894;SDS011;65855;42.030;13.078;2024-01-30T01:56:36;2.83;;;1.73;;
76894;SDS011;65855;42.030;13.078;2024-01-30T01:59:07;2.38;;;1.67;;
76894;SDS011;65855;42.030;13.078;2024-01-30T02:01:33;3.20;;;1.70;;
76894;SDS011;65855;42.030;13.078;2024-01-30T02:04:00;5.13;;;4.28;;
76894;SDS011;65855;42.030;13.078;2024-01-30T02:06:26;2.08;;;1.42;;
76894;SDS011;65855;42.030;13.078;2024-01-30T02:08:52;2.30;;;1.88;;
76894;SDS011;65855;42.030;13.078;2024-01-30T02:11:18;2.05;;;1.30;;
76894;SDS011;65855;42.030;13.078;2024-01-30T02:13:44;2.42;;;1.98;;
76894;SDS011;65855;42.030;13.078;2024-01-30T02:16:10;2.28;;;1.67;;
76894;SDS011;65855;42.030;13.078;2024-01-30T02:18:35;2.50;;;1.80;;
76894;SDS011;65855;42.030;13.078;2024-01-30T02:21:07;2.63;;;1.88;;
76894;SDS011;65855;42.030;13.078;2024-01-30T02:23:32;2.03;;;1.58;;
76894;SDS011;65855;42.030;13.078;2024-01-30T02:25:58;1.75;;;1.30;;
76894;SDS011;65855;42.030;13.078;2024-01-30T02:28:24;2.50;;;1.90;;
76894;SDS011;65855;42.030;13.078;2024-01-30T02:30:49;2.22;;;1.20;;
76894;SDS011;65855;42.030;13.078;2024-01-30T02:33:15;2.53;;;2.25;;
76894;SDS011;65855;42.030;13.078;2024-01-30T02:35:40;2.25;;;1.55;;
76894;SDS011;65855;42.030;13.078;2024-01-30T02:38:06;2.58;;;1.98;;
76894;SDS011;65855;42.030;13.078;2024-01-30T02:40:31;2.47;;;1.80;;
76894;SDS011;65855;42.030;13.078;2024-01-30T02:43:01;2.38;;;1.60;;
76894;SDS011;65855;42.030;13.078;2024-01-30T02:45:27;2.13;;;1.45;;
76894;SDS011;65855;42.030;13.078;2024-01-30T02:47:53;2.08;;;1.58;;
76894;SDS011;65855;42.030;13.078;2024-01-30T02:50:18;2.85;;;2.38;;
76894;SDS011;65855;42.030;13.078;2024-01-30T02:52:44;4.68;;;4.28;;
76894;SDS011;65855;42.030;13.078;2024-01-30T02:55:10;2.20;;;1.50;;
76894;SDS011;65855;42.030;13.078;2024-01-30T02:57:35;2.15;;;1.60;;
76894;SDS011;65855;42.030;13.078;2024-01-30T03:00:01;2.80;;;2.03;;
76894;SDS011;65855;42.030;13.078;2024-01-30T03:02:28;4.60;;;2.22;;
76894;SDS011;65855;42.030;13.078;2024-01-30T03:04:54;5.40;;;3.40;;
76894;SDS011;65855;42.030;13.078;2024-01-30T03:07:19;3.50;;;1.42;;
76894;SDS011;65855;42.030;13.078;2024-01-30T03:09:45;2.08;;;1.40;;
76894;SDS011;65855;42.030;13.078;2024-01-30T03:12:10;3.00;;;2.65;;
76894;SDS011;65855;42.030;13.078;2024-01-30T03:14:36;9.52;;;7.15;;
76894;SDS011;65855;42.030;13.078;2024-01-30T03:17:01;2.75;;;2.22;;
76894;SDS011;65855;42.030;13.078;2024-01-30T03:19:27;1.98;;;1.30;;
76894;SDS011;65855;42.030;13.078;2024-01-30T03:21:53;2.90;;;1.90;;
76894;SDS011;65855;42.030;13.078;2024-01-30T03:24:18;3.55;;;1.65;;
76894;SDS011;65855;42.030;13.078;2024-01-30T03:26:44;2.60;;;2.03;;
76894;SDS011;65855;42.030;13.078;2024-01-30T03:29:09;5.05;;;4.28;;
76894;SDS011;65855;42.030;13.078;2024-01-30T03:31:35;3.05;;;1.75;;
76894;SDS011;65855;42.030;13.078;2024-01-30T03:34:00;1.90;;;1.42;;
76894;SDS011;65855;42.030;13.078;2024-01-30T03:36:26;4.00;;;3.60;;
76894;SDS011;65855;42.030;13.078;2024-01-30T03:38:52;2.83;;;1.88;;
76894;SDS011;65855;42.030;13.078;2024-01-30T03:41:17;1.95;;;1.50;;
76894;SDS011;65855;42.030;13.078;2024-01-30T03:43:43;3.90;;;2.53;;
76894;SDS011;65855;42.030;13.078;2024-01-30T03:46:08;3.22;;;2.15;;
76894;SDS011;65855;42.030;13.078;2024-01-30T03:48:34;2.90;;;1.65;;
76894;SDS011;65855;42.030;13.078;2024-01-30T03:50:59;2.67;;;2.38;;
76894;SDS011;65855;42.030;13.078;2024-01-30T03:53:25;2.25;;;1.75;;
76894;SDS011;65855;42.030;13.078;2024-01-30T03:55:51;2.35;;;1.67;;
76894;SDS011;65855;42.030;13.078;2024-01-30T03:58:16;2.65;;;1.95;;
76894;SDS011;65855;42.030;13.078;2024-01-30T04:00:42;2.13;;;1.70;;
76894;SDS011;65855;42.030;13.078;2024-01-30T04:03:07;2.53;;;1.60;;
76894;SDS011;65855;42.030;13.078;2024-01-30T04:05:33;2.35;;;1.75;;
76894;SDS011;65855;42.030;13.078;2024-01-30T04:07:58;4.72;;;4.32;;
76894;SDS011;65855;42.030;13.078;2024-01-30T04:10:24;4.13;;;3.72;;
76894;SDS011;65855;42.030;13.078;2024-01-30T04:12:50;4.97;;;3.35;;
76894;SDS011;65855;42.030;13.078;2024-01-30T04:15:16;9.07;;;5.30;;
76894;SDS011;65855;42.030;13.078;2024-01-30T04:17:42;4.40;;;2.65;;
76894;SDS011;65855;42.030;13.078;2024-01-30T04:20:12;4.07;;;2.75;;
76894;SDS011;65855;42.030;13.078;2024-01-30T04:22:38;3.75;;;2.28;;
76894;SDS011;65855;42.030;13.078;2024-01-30T04:25:04;6.55;;;5.97;;
76894;SDS011;65855;42.030;13.078;2024-01-30T04:27:30;6.78;;;3.05;;
76894;SDS011;65855;42.030;13.078;2024-01-30T04:29:55;2.63;;;1.98;;
76894;SDS011;65855;42.030;13.078;2024-01-30T04:32:20;3.15;;;2.15;;
76894;SDS011;65855;42.030;13.078;2024-01-30T04:34:46;3.33;;;2.55;;
76894;SDS011;65855;42.030;13.078;2024-01-30T04:37:11;1.85;;;1.42;;
76894;SDS011;65855;42.030;13.078;2024-01-30T04:39:37;2.33;;;1.83;;
76894;SDS011;65855;42.030;13.078;2024-01-30T04:42:02;1.90;;;1.35;;
76894;SDS011;65855;42.030;13.078;2024-01-30T04:44:28;2.22;;;1.63;;
76894;SDS011;65855;42.030;13.078;2024-01-30T04:46:53;4.45;;;4.05;;
76894;SDS011;65855;42.030;13.078;2024-01-30T04:49:19;3.05;;;2.28;;
76894;SDS011;65855;42.030;13.078;2024-01-30T04:51:44;2.08;;;1.63;;
76894;SDS011;65855;42.030;13.078;2024-01-30T04:54:10;2.50;;;1.75;;
76894;SDS011;65855;42.030;13.078;2024-01-30T04:56:35;2.33;;;1.92;;
76894;SDS011;65855;42.030;13.078;2024-01-30T04:59:01;2.30;;;1.75;;
76894;SDS011;65855;42.030;13.078;2024-01-30T05:01:27;4.30;;;2.38;;
76894;SDS011;65855;42.030;13.078;2024-01-30T05:03:53;2.90;;;2.08;;
76894;SDS011;65855;42.030;13.078;2024-01-30T05:06:27;2.20;;;1.70;;
76894;SDS011;65855;42.030;13.078;2024-01-30T05:08:53;2.30;;;1.85;;
76894;SDS011;65855;42.030;13.078;2024-01-30T05:11:19;4.03;;;3.63;;
76894;SDS011;65855;42.030;13.078;2024-01-30T05:13:44;8.88;;;8.07;;
76894;SDS011;65855;42.030;13.078;2024-01-30T05:16:10;4.88;;;4.03;;
76894;SDS011;65855;42.030;13.078;2024-01-30T05:18:35;5.63;;;5.13;;
76894;SDS011;65855;42.030;13.078;2024-01-30T05:21:02;2.28;;;2.05;;
76894;SDS011;65855;42.030;13.078;2024-01-30T05:23:28;2.20;;;1.73;;
76894;SDS011;65855;42.030;13.078;2024-01-30T05:25:54;3.05;;;2.40;;
76894;SDS011;65855;42.030;13.078;2024-01-30T05:28:19;2.15;;;1.50;;
76894;SDS011;65855;42.030;13.078;2024-01-30T05:30:45;2.22;;;1.83;;
76894;SDS011;65855;42.030;13.078;2024-01-30T05:33:10;2.53;;;1.83;;
76894;SDS011;65855;42.030;13.078;2024-01-30T05:35:37;2.72;;;1.98;;
76894;SDS011;65855;42.030;13.078;2024-01-30T05:38:03;3.03;;;1.92;;
76894;SDS011;65855;42.030;13.078;2024-01-30T05:40:29;2.33;;;1.75;;
76894;SDS011;65855;42.030;13.078;2024-01-30T05:42:55;2.70;;;2.47;;
76894;SDS011;65855;42.030;13.078;2024-01-30T05:45:21;2.47;;;1.75;;
76894;SDS011;65855;42.030;13.078;2024-01-30T05:47:48;4.00;;;3.55;;
76894;SDS011;65855;42.030;13.078;2024-01-30T05:50:13;4.90;;;3.00;;
76894;SDS011;65855;42.030;13.078;2024-01-30T05:52:39;4.95;;;4.55;;
76894;SDS011;65855;42.030;13.078;2024-01-30T05:55:04;4.28;;;2.03;;
76894;SDS011;65855;42.030;13.078;2024-01-30T05:57:30;2.25;;;1.65;;
76894;SDS011;65855;42.030;13.078;2024-01-30T05:59:56;3.20;;;2.60;;
76894;SDS011;65855;42.030;13.078;2024-01-30T06:02:21;5.40;;;3.40;;
76894;SDS011;65855;42.030;13.078;2024-01-30T06:04:47;5.32;;;4.82;;
76894;SDS011;65855;42.030;13.078;2024-01-30T06:07:12;4.28;;;2.40;;
76894;SDS011;65855;42.030;13.078;2024-01-30T06:09:38;2.88;;;1.95;;
76894;SDS011;65855;42.030;13.078;2024-01-30T06:12:04;4.88;;;2.42;;
76894;SDS011;65855;42.030;13.078;2024-01-30T06:14:30;3.13;;;1.95;;
76894;SDS011;65855;42.030;13.078;2024-01-30T06:16:56;3.20;;;1.98;;
76894;SDS011;65855;42.030;13.078;2024-01-30T06:19:21;3.03;;;2.22;;
76894;SDS011;65855;42.030;13.078;2024-01-30T06:21:46;13.82;;;5.70;;
76894;SDS011;65855;42.030;13.078;2024-01-30T06:24:12;5.38;;;4.53;;
76894;SDS011;65855;42.030;13.078;2024-01-30T06:26:37;6.68;;;4.18;;
76894;SDS011;65855;42.030;13.078;2024-01-30T06:29:03;5.13;;;2.20;;
76894;SDS011;65855;42.030;13.078;2024-01-30T06:31:28;2.45;;;2.25;;
76894;SDS011;65855;42.030;13.078;2024-01-30T06:33:54;5.15;;;4.65;;
76894;SDS011;65855;42.030;13.078;2024-01-30T06:36:19;3.50;;;2.58;;
76894;SDS011;65855;42.030;13.078;2024-01-30T06:38:45;8.57;;;2.92;;
76894;SDS011;65855;42.030;13.078;2024-01-30T06:41:10;3.00;;;1.50;;
76894;SDS011;65855;42.030;13.078;2024-01-30T06:43:36;3.28;;;2.38;;
76894;SDS011;65855;42.030;13.078;2024-01-30T06:46:01;2.42;;;1.75;;
76894;SDS011;65855;42.030;13.078;2024-01-30T06:48:26;3.20;;;1.73;;
76894;SDS011;65855;42.030;13.078;2024-01-30T06:50:55;5.03;;;2.67;;
76894;SDS011;65855;42.030;13.078;2024-01-30T06:53:23;2.28;;;1.73;;
76894;SDS011;65855;42.030;13.078;2024-01-30T06:55:48;2.55;;;2.08;;
76894;SDS011;65855;42.030;13.078;2024-01-30T06:58:13;7.03;;;6.32;;
76894;SDS011;65855;42.030;13.078;2024-01-30T07:00:39;2.80;;;2.03;;
76894;SDS011;65855;42.030;13.078;2024-01-30T07:03:04;2.90;;;2.17;;
76894;SDS011;65855;42.030;13.078;2024-01-30T07:05:30;2.72;;;2.00;;
76894;SDS011;65855;42.030;13.078;2024-01-30T07:07:55;5.00;;;4.53;;
76894;SDS011;65855;42.030;13.078;2024-01-30T07:10:21;3.88;;;2.20;;
76894;SDS011;65855;42.030;13.078;2024-01-30T07:12:46;3.85;;;2.00;;
76894;SDS011;65855;42.030;13.078;2024-01-30T07:15:12;3.72;;;2.10;;
76894;SDS011;65855;42.030;13.078;2024-01-30T07:17:39;2.35;;;1.75;;
76894;SDS011;65855;42.030;13.078;2024-01-30T07:20:05;1.98;;;1.05;;
76894;SDS011;65855;42.030;13.078;2024-01-30T07:22:32;2.50;;;1.17;;
76894;SDS011;65855;42.030;13.078;2024-01-30T07:24:58;2.67;;;1.85;;
76894;SDS011;65855;42.030;13.078;2024-01-30T07:27:24;3.38;;;1.60;;
76894;SDS011;65855;42.030;13.078;2024-01-30T07:29:49;2.63;;;1.35;;
76894;SDS011;65855;42.030;13.078;2024-01-30T07:32:14;1.92;;;1.02;;
76894;SDS011;65855;42.030;13.078;2024-01-30T07:34:40;1.98;;;1.25;;
76894;SDS011;65855;42.030;13.078;2024-01-30T07:37:05;2.30;;;1.88;;
76894;SDS011;65855;42.030;13.078;2024-01-30T07:39:33;1.95;;;1.27;;
76894;SDS011;65855;42.030;13.078;2024-01-30T07:41:59;3.30;;;2.35;;
76894;SDS011;65855;42.030;13.078;2024-01-30T07:44:24;4.32;;;3.92;;
76894;SDS011;65855;42.030;13.078;2024-01-30T07:46:50;5.32;;;3.88;;
76894;SDS011;65855;42.030;13.078;2024-01-30T07:49:15;4.50;;;2.17;;
76894;SDS011;65855;42.030;13.078;2024-01-30T07:51:40;3.75;;;3.28;;
76894;SDS011;65855;42.030;13.078;2024-01-30T07:54:06;2.05;;;1.48;;
76894;SDS011;65855;42.030;13.078;2024-01-30T07:56:31;1.92;;;1.17;;
76894;SDS011;65855;42.030;13.078;2024-01-30T07:58:57;1.67;;;0.98;;
76894;SDS011;65855;42.030;13.078;2024-01-30T08:01:22;2.78;;;1.30;;
76894;SDS011;65855;42.030;13.078;2024-01-30T08:03:48;8.38;;;4.03;;
76894;SDS011;65855;42.030;13.078;2024-01-30T08:06:13;8.07;;;3.53;;
76894;SDS011;65855;42.030;13.078;2024-01-30T08:08:39;10.07;;;6.05;;
76894;SDS011;65855;42.030;13.078;2024-01-30T08:11:04;32.33;;;18.70;;
76894;SDS011;65855;42.030;13.078;2024-01-30T08:13:30;28.60;;;12.18;;
76894;SDS011;65855;42.030;13.078;2024-01-30T08:15:55;31.48;;;13.68;;
76894;SDS011;65855;42.030;13.078;2024-01-30T08:18:21;41.38;;;16.35;;
76894;SDS011;65855;42.030;13.078;2024-01-30T08:20:46;40.92;;;18.60;;
76894;SDS011;65855;42.030;13.078;2024-01-30T08:23:12;26.02;;;10.95;;
76894;SDS011;65855;42.030;13.078;2024-01-30T08:25:37;14.98;;;7.22;;
76894;SDS011;65855;42.030;13.078;2024-01-30T08:28:03;16.90;;;8.23;;
76894;SDS011;65855;42.030;13.078;2024-01-30T08:31:24;15.27;;;7.20;;
76894;SDS011;65855;42.030;13.078;2024-01-30T08:33:50;11.20;;;4.50;;
76894;SDS011;65855;42.030;13.078;2024-01-30T08:36:15;10.68;;;3.83;;
76894;SDS011;65855;42.030;13.078;2024-01-30T08:38:41;12.35;;;6.15;;
76894;SDS011;65855;42.030;13.078;2024-01-30T08:41:07;11.93;;;5.72;;
76894;SDS011;65855;42.030;13.078;2024-01-30T08:43:33;15.70;;;6.32;;
76894;SDS011;65855;42.030;13.078;2024-01-30T08:49:04;19.15;;;9.88;;
76894;SDS011;65855;42.030;13.078;2024-01-30T08:51:30;12.80;;;5.47;;
76894;SDS011;65855;42.030;13.078;2024-01-30T08:53:55;12.93;;;4.70;;
76894;SDS011;65855;42.030;13.078;2024-01-30T08:56:21;7.15;;;2.55;;
76894;SDS011;65855;42.030;13.078;2024-01-30T08:58:46;6.05;;;2.55;;
76894;SDS011;65855;42.030;13.078;2024-01-30T09:01:12;5.50;;;1.75;;
76894;SDS011;65855;42.030;13.078;2024-01-30T09:03:38;10.65;;;4.30;;
76894;SDS011;65855;42.030;13.078;2024-01-30T09:06:08;12.20;;;5.53;;
76894;SDS011;65855;42.030;13.078;2024-01-30T09:08:34;15.23;;;6.47;;
76894;SDS011;65855;42.030;13.078;2024-01-30T09:10:59;18.13;;;7.68;;
76894;SDS011;65855;42.030;13.078;2024-01-30T09:13:25;19.13;;;9.95;;
76894;SDS011;65855;42.030;13.078;2024-01-30T09:15:50;20.52;;;8.95;;
76894;SDS011;65855;42.030;13.078;2024-01-30T09:18:16;21.98;;;10.82;;
76894;SDS011;65855;42.030;13.078;2024-01-30T09:20:41;18.15;;;7.80;;
76894;SDS011;65855;42.030;13.078;2024-01-30T09:23:07;16.02;;;8.07;;
76894;SDS011;65855;42.030;13.078;2024-01-30T09:25:33;15.25;;;6.75;;
76894;SDS011;65855;42.030;13.078;2024-01-30T09:27:59;16.55;;;7.65;;
76894;SDS011;65855;42.030;13.078;2024-01-30T09:30:24;14.90;;;6.75;;
76894;SDS011;65855;42.030;13.078;2024-01-30T09:32:50;12.68;;;6.35;;
76894;SDS011;65855;42.030;13.078;2024-01-30T09:35:15;9.75;;;5.10;;
76894;SDS011;65855;42.030;13.078;2024-01-30T09:37:41;11.57;;;4.70;;
76894;SDS011;65855;42.030;13.078;2024-01-30T09:40:06;8.60;;;3.53;;
76894;SDS011;65855;42.030;13.078;2024-01-30T09:44:58;7.10;;;2.80;;
76894;SDS011;65855;42.030;13.078;2024-01-30T09:47:23;7.05;;;2.35;;
76894;SDS011;65855;42.030;13.078;2024-01-30T09:49:49;9.73;;;3.60;;
76894;SDS011;65855;42.030;13.078;2024-01-30T09:52:16;11.85;;;6.03;;
76894;SDS011;65855;42.030;13.078;2024-01-30T09:54:41;9.90;;;4.35;;
76894;SDS011;65855;42.030;13.078;2024-01-30T09:57:08;8.82;;;4.13;;
76894;SDS011;65855;42.030;13.078;2024-01-30T09:59:34;5.53;;;1.00;;
76894;SDS011;65855;42.030;13.078;2024-01-30T10:02:00;4.63;;;1.45;;
76894;SDS011;65855;42.030;13.078;2024-01-30T10:04:25;4.85;;;1.13;;
76894;SDS011;65855;42.030;13.078;2024-01-30T10:06:51;4.10;;;1.25;;
76894;SDS011;65855;42.030;13.078;2024-01-30T10:09:16;3.85;;;1.02;;
76894;SDS011;65855;42.030;13.078;2024-01-30T10:11:41;5.55;;;1.20;;
76894;SDS011;65855;42.030;13.078;2024-01-30T10:14:07;4.05;;;1.15;;
76894;SDS011;65855;42.030;13.078;2024-01-30T10:16:34;5.57;;;2.05;;
76894;SDS011;65855;42.030;13.078;2024-01-30T10:19:00;6.47;;;1.88;;
76894;SDS011;65855;42.030;13.078;2024-01-30T10:21:25;5.90;;;1.85;;
76894;SDS011;65855;42.030;13.078;2024-01-30T10:23:51;5.70;;;1.60;;
76894;SDS011;65855;42.030;13.078;2024-01-30T10:26:16;8.38;;;1.85;;
76894;SDS011;65855;42.030;13.078;2024-01-30T10:28:44;7.28;;;1.70;;
76894;SDS011;65855;42.030;13.078;2024-01-30T10:31:10;5.05;;;1.42;;
76894;SDS011;65855;42.030;13.078;2024-01-30T10:33:35;7.45;;;1.27;;
76894;SDS011;65855;42.030;13.078;2024-01-30T10:36:02;5.50;;;1.50;;
76894;SDS011;65855;42.030;13.078;2024-01-30T10:38:29;8.65;;;3.30;;
76894;SDS011;65855;42.030;13.078;2024-01-30T10:40:59;13.35;;;6.45;;
76894;SDS011;65855;42.030;13.078;2024-01-30T10:43:35;9.23;;;3.85;;
76894;SDS011;65855;42.030;13.078;2024-01-30T10:46:07;5.25;;;1.15;;
76894;SDS011;65855;42.030;13.078;2024-01-30T10:48:44;6.40;;;1.65;;
76894;SDS011;65855;42.030;13.078;2024-01-30T10:51:15;5.38;;;1.48;;
76894;SDS011;65855;42.030;13.078;2024-01-30T10:53:41;5.47;;;1.40;;
76894;SDS011;65855;42.030;13.078;2024-01-30T10:56:11;7.07;;;1.30;;
76894;SDS011;65855;42.030;13.078;2024-01-30T10:58:38;5.20;;;1.30;;
76894;SDS011;65855;42.030;13.078;2024-01-30T11:01:03;5.72;;;1.60;;
76894;SDS011;65855;42.030;13.078;2024-01-30T11:03:30;9.77;;;1.55;;
76894;SDS011;65855;42.030;13.078;2024-01-30T11:05:59;9.43;;;2.00;;
76894;SDS011;65855;42.030;13.078;2024-01-30T11:08:25;5.20;;;1.38;;
76894;SDS011;65855;42.030;13.078;2024-01-30T11:10:56;6.88;;;1.58;;
76894;SDS011;65855;42.030;13.078;2024-01-30T11:13:28;5.85;;;1.70;;
76894;SDS011;65855;42.030;13.078;2024-01-30T11:15:54;5.97;;;1.42;;
76894;SDS011;65855;42.030;13.078;2024-01-30T11:18:23;6.10;;;1.52;;
76894;SDS011;65855;42.030;13.078;2024-01-30T11:23:15;5.73;;;1.50;;
76894;SDS011;65855;42.030;13.078;2024-01-30T11:25:43;5.93;;;1.63;;
76894;SDS011;65855;42.030;13.078;2024-01-30T11:28:14;4.57;;;1.30;;
76894;SDS011;65855;42.030;13.078;2024-01-30T11:30:43;5.35;;;1.90;;
76894;SDS011;65855;42.030;13.078;2024-01-30T11:33:10;5.28;;;1.70;;
76894;SDS011;65855;42.030;13.078;2024-01-30T11:38:04;5.72;;;2.35;;
76894;SDS011;65855;42.030;13.078;2024-01-30T11:40:31;6.35;;;2.10;;
76894;SDS011;65855;42.030;13.078;2024-01-30T11:42:58;6.97;;;2.53;;
76894;SDS011;65855;42.030;13.078;2024-01-30T11:45:25;6.35;;;2.47;;
76894;SDS011;65855;42.030;13.078;2024-01-30T11:47:52;5.65;;;1.70;;
76894;SDS011;65855;42.030;13.078;2024-01-30T11:50:18;6.03;;;2.70;;
76894;SDS011;65855;42.030;13.078;2024-01-30T11:52:44;5.32;;;1.73;;
76894;SDS011;65855;42.030;13.078;2024-01-30T11:55:09;6.00;;;1.92;;
76894;SDS011;65855;42.030;13.078;2024-01-30T11:57:35;4.05;;;1.10;;
76894;SDS011;65855;42.030;13.078;2024-01-30T12:00:02;5.65;;;1.40;;
76894;SDS011;65855;42.030;13.078;2024-01-30T12:02:35;5.63;;;1.85;;
76894;SDS011;65855;42.030;13.078;2024-01-30T12:05:06;4.82;;;1.40;;
76894;SDS011;65855;42.030;13.078;2024-01-30T12:07:35;5.32;;;1.70;;
76894;SDS011;65855;42.030;13.078;2024-01-30T12:10:01;4.65;;;1.50;;
76894;SDS011;65855;42.030;13.078;2024-01-30T12:12:28;4.78;;;1.33;;
76894;SDS011;65855;42.030;13.078;2024-01-30T12:14:55;5.35;;;1.25;;
76894;SDS011;65855;42.030;13.078;2024-01-30T12:17:29;3.83;;;1.10;;
76894;SDS011;65855;42.030;13.078;2024-01-30T12:20:06;7.00;;;2.00;;
76894;SDS011;65855;42.030;13.078;2024-01-30T12:22:40;5.05;;;1.30;;
76894;SDS011;65855;42.030;13.078;2024-01-30T12:25:07;4.47;;;1.20;;
76894;SDS011;65855;42.030;13.078;2024-01-30T12:27:34;4.70;;;1.23;;
76894;SDS011;65855;42.030;13.078;2024-01-30T12:30:00;5.32;;;1.85;;
76894;SDS011;65855;42.030;13.078;2024-01-30T12:32:25;5.20;;;1.45;;
76894;SDS011;65855;42.030;13.078;2024-01-30T12:34:54;6.15;;;1.30;;
76894;SDS011;65855;42.030;13.078;2024-01-30T12:37:20;4.63;;;1.70;;
76894;SDS011;65855;42.030;13.078;2024-01-30T12:39:48;4.38;;;1.17;;
76894;SDS011;65855;42.030;13.078;2024-01-30T12:42:18;4.57;;;1.40;;
76894;SDS011;65855;42.030;13.078;2024-01-30T12:44:45;4.80;;;1.17;;
76894;SDS011;65855;42.030;13.078;2024-01-30T12:47:11;4.22;;;1.55;;
76894;SDS011;65855;42.030;13.078;2024-01-30T12:49:36;5.45;;;1.40;;
76894;SDS011;65855;42.030;13.078;2024-01-30T12:52:01;4.95;;;1.38;;
76894;SDS011;65855;42.030;13.078;2024-01-30T12:54:27;4.93;;;1.40;;
76894;SDS011;65855;42.030;13.078;2024-01-30T12:56:53;5.95;;;1.67;;
76894;SDS011;65855;42.030;13.078;2024-01-30T12:59:18;5.43;;;2.00;;
76894;SDS011;65855;42.030;13.078;2024-01-30T13:01:44;5.50;;;1.70;;
76894;SDS011;65855;42.030;13.078;2024-01-30T13:04:09;5.85;;;1.60;;
76894;SDS011;65855;42.030;13.078;2024-01-30T13:06:36;5.53;;;1.65;;
76894;SDS011;65855;42.030;13.078;2024-01-30T13:09:01;5.18;;;1.90;;
76894;SDS011;65855;42.030;13.078;2024-01-30T13:11:27;5.10;;;1.73;;
76894;SDS011;65855;42.030;13.078;2024-01-30T13:13:53;6.25;;;2.20;;
76894;SDS011;65855;42.030;13.078;2024-01-30T13:16:18;7.30;;;2.72;;
76894;SDS011;65855;42.030;13.078;2024-01-30T13:18:44;7.20;;;2.35;;
76894;SDS011;65855;42.030;13.078;2024-01-30T13:21:09;7.75;;;3.25;;
76894;SDS011;65855;42.030;13.078;2024-01-30T13:23:35;8.05;;;3.08;;
76894;SDS011;65855;42.030;13.078;2024-01-30T13:26:00;10.48;;;4.90;;
76894;SDS011;65855;42.030;13.078;2024-01-30T13:28:26;9.50;;;3.97;;
76894;SDS011;65855;42.030;13.078;2024-01-30T13:30:51;10.02;;;5.25;;
76894;SDS011;65855;42.030;13.078;2024-01-30T13:33:17;7.45;;;3.97;;
76894;SDS011;65855;42.030;13.078;2024-01-30T13:35:42;11.15;;;4.18;;
76894;SDS011;65855;42.030;13.078;2024-01-30T13:38:08;8.32;;;3.45;;
76894;SDS011;65855;42.030;13.078;2024-01-30T13:40:34;9.43;;;4.13;;
76894;SDS011;65855;42.030;13.078;2024-01-30T13:42:59;10.07;;;3.83;;
76894;SDS011;65855;42.030;13.078;2024-01-30T13:45:25;9.05;;;4.53;;
76894;SDS011;65855;42.030;13.078;2024-01-30T13:47:50;7.28;;;3.53;;
76894;SDS011;65855;42.030;13.078;2024-01-30T13:50:16;8.68;;;3.95;;
76894;SDS011;65855;42.030;13.078;2024-01-30T13:52:42;10.48;;;4.65;;
76894;SDS011;65855;42.030;13.078;2024-01-30T13:55:08;9.57;;;4.32;;
76894;SDS011;65855;42.030;13.078;2024-01-30T13:57:34;9.85;;;4.35;;
76894;SDS011;65855;42.030;13.078;2024-01-30T14:00:02;9.63;;;4.30;;
76894;SDS011;65855;42.030;13.078;2024-01-30T14:02:30;8.60;;;4.10;;
76894;SDS011;65855;42.030;13.078;2024-01-30T14:04:56;10.23;;;4.68;;
76894;SDS011;65855;42.030;13.078;2024-01-30T14:07:21;8.23;;;4.30;;
76894;SDS011;65855;42.030;13.078;2024-01-30T14:09:47;9.13;;;4.80;;
76894;SDS011;65855;42.030;13.078;2024-01-30T14:12:13;10.48;;;4.57;;
76894;SDS011;65855;42.030;13.078;2024-01-30T14:14:38;10.48;;;4.95;;
76894;SDS011;65855;42.030;13.078;2024-01-30T14:17:05;8.75;;;5.13;;
76894;SDS011;65855;42.030;13.078;2024-01-30T14:19:32;12.30;;;6.15;;
76894;SDS011;65855;42.030;13.078;2024-01-30T14:21:58;9.15;;;4.68;;
76894;SDS011;65855;42.030;13.078;2024-01-30T14:24:23;9.70;;;6.07;;
76894;SDS011;65855;42.030;13.078;2024-01-30T14:26:49;10.27;;;6.57;;
76894;SDS011;65855;42.030;13.078;2024-01-30T14:29:14;12.90;;;7.57;;
76894;SDS011;65855;42.030;13.078;2024-01-30T14:31:40;14.50;;;11.30;;
76894;SDS011;65855;42.030;13.078;2024-01-30T14:34:05;10.98;;;5.85;;
76894;SDS011;65855;42.030;13.078;2024-01-30T14:36:31;15.85;;;9.55;;
76894;SDS011;65855;42.030;13.078;2024-01-30T14:38:56;16.15;;;12.05;;